Portada
METAR-TAF:

METAR-TAF

Aeroports :

Ciudad Obregón, Mèxic

latitud: 27-24N, longitud: 109-50W, altitud: 62 m

Observació

L'informe es va fer fa 8 hores i 44 minuts, a les 01:40 UTC
Vent 4 kt del Oest
Temperatura 18°C
Humitat 52%
Pressió 1016 hPa
Visibilitat: 12.9 km
Cel clar

METAR: MMCN 050140Z 27004KT 8SM SKC 18/08 A3001 RMK HZY

Hora: 03:24 (10:24 UTC)

Pronòstic

L'informe es va fer fa 4 hores i 42 minuts, a les 05:42 UTC
Pronòstic vàlid del 05 a les 06 UTC al 06 a les 06 UTC
Vent 5 kt del Nord/Nord-Oest
Visibilitat: 10 km
Cel clar
Temporalment
l' 05 a les 12 UTC al 05 a les 16 UTC
Visibilitat: 4.8 km
calitja
A partir de les 05 a les 1600 UTC
Vent 10 kt del Oest/Sud-Oest
Visibilitat: 10 km
Cel clar
Evolucionant progressivament
l' 06 a les 00 UTC al 06 a les 01 UTC
Vent 5 kt del Oest

TAF: MMCN 050542Z 0506/0606 33005KT P6SM SKC TEMPO 0512/0516 3SM HZ FM051600 25010KT P6SM SKC BECMG 0600/0601 28005KT

Observacions i pronòstics meteorològics de més de 4000 aeroports (METAR i TAF).

Les estacions disponibles són els punts grocs i vermells al mapa.

Posi el ratolí al punt desitjat per veure el nom de l'estació.

Feu clic per veure les observacions i els pronòstics meteorològics.

Per canviar el mapa: feu clic els botons verds amb una creu de color negre per apropar; al botó verd amb un guió per allunyar la imatge; o en les fletxes verdes per a mapes adjacents.


METAR-TAF: